sensor_id;sensor_type;location;lat;lon;timestamp;P1;durP1;ratioP1;P2;durP2;ratioP2
67248;SDS011;54162;54.300;18.592;2022-08-05T00:01:40;20.20;;;13.50;;
67248;SDS011;54162;54.300;18.592;2022-08-05T00:04:06;19.90;;;12.95;;
67248;SDS011;54162;54.300;18.592;2022-08-05T00:06:32;24.70;;;13.50;;
67248;SDS011;54162;54.300;18.592;2022-08-05T00:08:57;19.30;;;13.60;;
67248;SDS011;54162;54.300;18.592;2022-08-05T00:11:24;21.48;;;12.95;;
67248;SDS011;54162;54.300;18.592;2022-08-05T00:13:50;21.05;;;12.93;;
67248;SDS011;54162;54.300;18.592;2022-08-05T00:16:15;21.07;;;12.80;;
67248;SDS011;54162;54.300;18.592;2022-08-05T00:18:43;17.40;;;12.53;;
67248;SDS011;54162;54.300;18.592;2022-08-05T00:21:10;18.58;;;12.15;;
67248;SDS011;54162;54.300;18.592;2022-08-05T00:23:37;20.00;;;12.40;;
67248;SDS011;54162;54.300;18.592;2022-08-05T00:26:04;16.55;;;12.00;;
67248;SDS011;54162;54.300;18.592;2022-08-05T00:28:31;19.30;;;12.40;;
67248;SDS011;54162;54.300;18.592;2022-08-05T00:30:56;17.80;;;12.40;;
67248;SDS011;54162;54.300;18.592;2022-08-05T00:33:22;17.57;;;12.83;;
67248;SDS011;54162;54.300;18.592;2022-08-05T00:35:47;22.73;;;12.90;;
67248;SDS011;54162;54.300;18.592;2022-08-05T00:38:13;17.90;;;12.45;;
67248;SDS011;54162;54.300;18.592;2022-08-05T00:40:48;17.63;;;12.67;;
67248;SDS011;54162;54.300;18.592;2022-08-05T00:43:16;19.38;;;12.00;;
67248;SDS011;54162;54.300;18.592;2022-08-05T00:45:42;21.73;;;13.60;;
67248;SDS011;54162;54.300;18.592;2022-08-05T00:48:11;20.08;;;13.02;;
67248;SDS011;54162;54.300;18.592;2022-08-05T00:50:39;17.05;;;12.57;;
67248;SDS011;54162;54.300;18.592;2022-08-05T00:53:05;16.98;;;12.68;;
67248;SDS011;54162;54.300;18.592;2022-08-05T00:55:31;16.43;;;12.90;;
67248;SDS011;54162;54.300;18.592;2022-08-05T00:57:57;18.45;;;14.02;;
67248;SDS011;54162;54.300;18.592;2022-08-05T01:00:22;17.00;;;12.83;;
67248;SDS011;54162;54.300;18.592;2022-08-05T01:02:48;18.57;;;13.53;;
67248;SDS011;54162;54.300;18.592;2022-08-05T01:05:13;18.97;;;13.70;;
67248;SDS011;54162;54.300;18.592;2022-08-05T01:07:39;19.67;;;13.85;;
67248;SDS011;54162;54.300;18.592;2022-08-05T01:10:04;19.33;;;12.83;;
67248;SDS011;54162;54.300;18.592;2022-08-05T01:12:34;20.35;;;13.98;;
67248;SDS011;54162;54.300;18.592;2022-08-05T01:15:02;19.85;;;13.95;;
67248;SDS011;54162;54.300;18.592;2022-08-05T01:20:36;21.92;;;13.25;;
67248;SDS011;54162;54.300;18.592;2022-08-05T01:23:17;18.38;;;13.25;;
67248;SDS011;54162;54.300;18.592;2022-08-05T01:28:52;18.50;;;13.30;;
67248;SDS011;54162;54.300;18.592;2022-08-05T01:31:24;18.42;;;12.82;;
67248;SDS011;54162;54.300;18.592;2022-08-05T01:34:30;18.35;;;13.10;;
67248;SDS011;54162;54.300;18.592;2022-08-05T01:36:59;20.73;;;13.07;;
67248;SDS011;54162;54.300;18.592;2022-08-05T01:39:31;21.77;;;13.07;;
67248;SDS011;54162;54.300;18.592;2022-08-05T01:42:00;20.35;;;12.55;;
67248;SDS011;54162;54.300;18.592;2022-08-05T01:44:26;18.95;;;13.38;;
67248;SDS011;54162;54.300;18.592;2022-08-05T01:46:52;19.42;;;13.43;;
67248;SDS011;54162;54.300;18.592;2022-08-05T01:49:20;23.02;;;13.77;;
67248;SDS011;54162;54.300;18.592;2022-08-05T01:51:47;20.98;;;13.27;;
67248;SDS011;54162;54.300;18.592;2022-08-05T01:54:13;20.97;;;13.50;;
67248;SDS011;54162;54.300;18.592;2022-08-05T01:56:41;19.60;;;13.88;;
67248;SDS011;54162;54.300;18.592;2022-08-05T01:59:09;21.98;;;13.45;;
67248;SDS011;54162;54.300;18.592;2022-08-05T02:01:37;19.10;;;13.30;;
67248;SDS011;54162;54.300;18.592;2022-08-05T02:04:04;20.65;;;13.60;;
67248;SDS011;54162;54.300;18.592;2022-08-05T02:06:30;20.67;;;14.37;;
67248;SDS011;54162;54.300;18.592;2022-08-05T02:08:57;19.95;;;14.00;;
67248;SDS011;54162;54.300;18.592;2022-08-05T02:11:23;21.15;;;14.05;;
67248;SDS011;54162;54.300;18.592;2022-08-05T02:13:53;19.30;;;14.18;;
67248;SDS011;54162;54.300;18.592;2022-08-05T02:16:28;20.67;;;14.35;;
67248;SDS011;54162;54.300;18.592;2022-08-05T02:19:23;24.05;;;13.90;;
67248;SDS011;54162;54.300;18.592;2022-08-05T02:21:52;19.48;;;13.68;;
67248;SDS011;54162;54.300;18.592;2022-08-05T02:24:24;21.85;;;14.38;;
67248;SDS011;54162;54.300;18.592;2022-08-05T02:26:57;22.85;;;14.32;;
67248;SDS011;54162;54.300;18.592;2022-08-05T02:29:26;20.35;;;14.27;;
67248;SDS011;54162;54.300;18.592;2022-08-05T02:31:54;22.05;;;14.23;;
67248;SDS011;54162;54.300;18.592;2022-08-05T02:34:21;23.02;;;14.02;;
67248;SDS011;54162;54.300;18.592;2022-08-05T02:36:52;20.35;;;13.77;;
67248;SDS011;54162;54.300;18.592;2022-08-05T02:39:22;22.48;;;14.13;;
67248;SDS011;54162;54.300;18.592;2022-08-05T02:41:49;22.85;;;14.63;;
67248;SDS011;54162;54.300;18.592;2022-08-05T02:44:18;24.08;;;14.55;;
67248;SDS011;54162;54.300;18.592;2022-08-05T02:46:45;23.27;;;14.98;;
67248;SDS011;54162;54.300;18.592;2022-08-05T02:49:13;22.20;;;14.25;;
67248;SDS011;54162;54.300;18.592;2022-08-05T02:51:40;20.33;;;14.25;;
67248;SDS011;54162;54.300;18.592;2022-08-05T02:54:06;24.25;;;14.43;;
67248;SDS011;54162;54.300;18.592;2022-08-05T02:56:34;21.17;;;14.98;;
67248;SDS011;54162;54.300;18.592;2022-08-05T02:59:00;23.60;;;15.20;;
67248;SDS011;54162;54.300;18.592;2022-08-05T03:01:27;24.70;;;14.52;;
67248;SDS011;54162;54.300;18.592;2022-08-05T03:03:54;22.00;;;14.93;;
67248;SDS011;54162;54.300;18.592;2022-08-05T03:06:23;20.73;;;13.80;;
67248;SDS011;54162;54.300;18.592;2022-08-05T03:08:50;22.17;;;14.88;;
67248;SDS011;54162;54.300;18.592;2022-08-05T03:11:17;22.25;;;15.82;;
67248;SDS011;54162;54.300;18.592;2022-08-05T03:13:42;22.48;;;15.80;;
67248;SDS011;54162;54.300;18.592;2022-08-05T03:16:08;29.38;;;16.48;;
67248;SDS011;54162;54.300;18.592;2022-08-05T03:18:33;28.87;;;16.07;;
67248;SDS011;54162;54.300;18.592;2022-08-05T03:20:59;25.20;;;16.00;;
67248;SDS011;54162;54.300;18.592;2022-08-05T03:23:24;22.67;;;16.13;;
67248;SDS011;54162;54.300;18.592;2022-08-05T03:25:50;23.52;;;15.93;;
67248;SDS011;54162;54.300;18.592;2022-08-05T03:28:16;22.27;;;15.17;;
67248;SDS011;54162;54.300;18.592;2022-08-05T03:30:42;22.30;;;15.02;;
67248;SDS011;54162;54.300;18.592;2022-08-05T03:33:08;21.60;;;15.25;;
67248;SDS011;54162;54.300;18.592;2022-08-05T03:35:34;21.25;;;15.18;;
67248;SDS011;54162;54.300;18.592;2022-08-05T03:38:00;26.00;;;15.10;;
67248;SDS011;54162;54.300;18.592;2022-08-05T03:40:26;22.55;;;15.63;;
67248;SDS011;54162;54.300;18.592;2022-08-05T03:42:52;25.17;;;16.00;;
67248;SDS011;54162;54.300;18.592;2022-08-05T03:45:18;21.77;;;15.60;;
67248;SDS011;54162;54.300;18.592;2022-08-05T03:47:44;20.90;;;15.20;;
67248;SDS011;54162;54.300;18.592;2022-08-05T03:50:10;21.30;;;15.67;;
67248;SDS011;54162;54.300;18.592;2022-08-05T03:55:35;20.70;;;14.73;;
67248;SDS011;54162;54.300;18.592;2022-08-05T03:58:07;21.92;;;14.63;;
67248;SDS011;54162;54.300;18.592;2022-08-05T04:00:36;23.40;;;14.10;;
67248;SDS011;54162;54.300;18.592;2022-08-05T04:03:04;23.15;;;13.93;;
67248;SDS011;54162;54.300;18.592;2022-08-05T04:05:32;20.50;;;13.75;;
67248;SDS011;54162;54.300;18.592;2022-08-05T04:08:03;21.67;;;13.47;;
67248;SDS011;54162;54.300;18.592;2022-08-05T04:10:32;20.25;;;13.80;;
67248;SDS011;54162;54.300;18.592;2022-08-05T04:12:59;17.80;;;12.82;;
67248;SDS011;54162;54.300;18.592;2022-08-05T04:15:25;21.42;;;13.32;;
67248;SDS011;54162;54.300;18.592;2022-08-05T04:17:52;25.25;;;13.23;;
67248;SDS011;54162;54.300;18.592;2022-08-05T04:20:22;18.92;;;13.15;;
67248;SDS011;54162;54.300;18.592;2022-08-05T04:22:48;19.85;;;12.75;;
67248;SDS011;54162;54.300;18.592;2022-08-05T04:25:14;19.05;;;12.27;;
67248;SDS011;54162;54.300;18.592;2022-08-05T04:27:40;19.00;;;12.77;;
67248;SDS011;54162;54.300;18.592;2022-08-05T04:30:06;16.03;;;11.73;;
67248;SDS011;54162;54.300;18.592;2022-08-05T04:32:33;16.63;;;12.20;;
67248;SDS011;54162;54.300;18.592;2022-08-05T04:34:59;20.92;;;12.23;;
67248;SDS011;54162;54.300;18.592;2022-08-05T04:37:24;18.07;;;12.43;;
67248;SDS011;54162;54.300;18.592;2022-08-05T04:39:50;16.20;;;11.63;;
67248;SDS011;54162;54.300;18.592;2022-08-05T04:42:15;18.40;;;12.43;;
67248;SDS011;54162;54.300;18.592;2022-08-05T04:44:41;18.53;;;12.30;;
67248;SDS011;54162;54.300;18.592;2022-08-05T04:47:06;18.73;;;11.37;;
67248;SDS011;54162;54.300;18.592;2022-08-05T04:49:32;18.88;;;11.07;;
67248;SDS011;54162;54.300;18.592;2022-08-05T04:51:57;17.63;;;10.73;;
67248;SDS011;54162;54.300;18.592;2022-08-05T04:54:23;15.27;;;10.07;;
67248;SDS011;54162;54.300;18.592;2022-08-05T04:56:51;13.63;;;9.98;;
67248;SDS011;54162;54.300;18.592;2022-08-05T04:59:18;13.70;;;10.65;;
67248;SDS011;54162;54.300;18.592;2022-08-05T05:01:44;11.85;;;9.77;;
67248;SDS011;54162;54.300;18.592;2022-08-05T05:04:10;12.83;;;10.17;;
67248;SDS011;54162;54.300;18.592;2022-08-05T05:06:36;13.10;;;10.30;;
67248;SDS011;54162;54.300;18.592;2022-08-05T05:09:02;11.50;;;10.30;;
67248;SDS011;54162;54.300;18.592;2022-08-05T05:11:27;13.75;;;10.18;;
67248;SDS011;54162;54.300;18.592;2022-08-05T05:13:53;13.13;;;10.30;;
67248;SDS011;54162;54.300;18.592;2022-08-05T05:16:18;11.97;;;10.00;;
67248;SDS011;54162;54.300;18.592;2022-08-05T05:18:43;14.30;;;9.83;;
67248;SDS011;54162;54.300;18.592;2022-08-05T05:21:09;16.20;;;9.63;;
67248;SDS011;54162;54.300;18.592;2022-08-05T05:23:34;13.23;;;9.57;;
67248;SDS011;54162;54.300;18.592;2022-08-05T05:26:00;11.10;;;9.50;;
67248;SDS011;54162;54.300;18.592;2022-08-05T05:28:25;14.07;;;9.77;;
67248;SDS011;54162;54.300;18.592;2022-08-05T05:30:51;12.73;;;9.43;;
67248;SDS011;54162;54.300;18.592;2022-08-05T05:33:16;17.48;;;9.63;;
67248;SDS011;54162;54.300;18.592;2022-08-05T05:35:42;11.23;;;9.30;;
67248;SDS011;54162;54.300;18.592;2022-08-05T05:38:11;11.45;;;9.45;;
67248;SDS011;54162;54.300;18.592;2022-08-05T05:40:37;13.47;;;8.37;;
67248;SDS011;54162;54.300;18.592;2022-08-05T05:43:03;13.10;;;9.10;;
67248;SDS011;54162;54.300;18.592;2022-08-05T05:45:28;13.67;;;9.27;;
67248;SDS011;54162;54.300;18.592;2022-08-05T05:47:56;12.37;;;9.30;;
67248;SDS011;54162;54.300;18.592;2022-08-05T05:50:22;13.27;;;8.80;;
67248;SDS011;54162;54.300;18.592;2022-08-05T05:52:48;10.67;;;8.70;;
67248;SDS011;54162;54.300;18.592;2022-08-05T05:55:14;12.27;;;9.43;;
67248;SDS011;54162;54.300;18.592;2022-08-05T05:57:41;10.98;;;7.88;;
67248;SDS011;54162;54.300;18.592;2022-08-05T06:00:09;12.95;;;9.20;;
67248;SDS011;54162;54.300;18.592;2022-08-05T06:02:40;14.23;;;8.93;;
67248;SDS011;54162;54.300;18.592;2022-08-05T06:05:06;14.73;;;8.80;;
67248;SDS011;54162;54.300;18.592;2022-08-05T06:07:33;17.00;;;9.27;;
67248;SDS011;54162;54.300;18.592;2022-08-05T06:09:58;12.53;;;8.73;;
67248;SDS011;54162;54.300;18.592;2022-08-05T06:12:24;12.13;;;8.30;;
67248;SDS011;54162;54.300;18.592;2022-08-05T06:14:49;10.57;;;8.43;;
67248;SDS011;54162;54.300;18.592;2022-08-05T06:17:15;11.67;;;8.40;;
67248;SDS011;54162;54.300;18.592;2022-08-05T06:19:40;11.25;;;8.60;;
67248;SDS011;54162;54.300;18.592;2022-08-05T06:22:06;13.30;;;8.40;;
67248;SDS011;54162;54.300;18.592;2022-08-05T06:24:32;10.32;;;8.68;;
67248;SDS011;54162;54.300;18.592;2022-08-05T06:26:59;10.93;;;8.52;;
67248;SDS011;54162;54.300;18.592;2022-08-05T06:29:24;11.77;;;8.63;;
67248;SDS011;54162;54.300;18.592;2022-08-05T06:31:50;13.40;;;8.32;;
67248;SDS011;54162;54.300;18.592;2022-08-05T06:34:16;13.17;;;8.03;;
67248;SDS011;54162;54.300;18.592;2022-08-05T06:36:42;12.63;;;7.90;;
67248;SDS011;54162;54.300;18.592;2022-08-05T06:39:07;11.77;;;8.13;;
67248;SDS011;54162;54.300;18.592;2022-08-05T06:41:33;14.48;;;7.80;;
67248;SDS011;54162;54.300;18.592;2022-08-05T06:43:59;11.33;;;8.23;;
67248;SDS011;54162;54.300;18.592;2022-08-05T06:46:24;11.03;;;7.67;;
67248;SDS011;54162;54.300;18.592;2022-08-05T06:48:50;11.57;;;7.35;;
67248;SDS011;54162;54.300;18.592;2022-08-05T06:51:15;11.90;;;6.87;;
67248;SDS011;54162;54.300;18.592;2022-08-05T06:53:41;10.80;;;7.35;;
67248;SDS011;54162;54.300;18.592;2022-08-05T06:56:06;10.47;;;7.77;;
67248;SDS011;54162;54.300;18.592;2022-08-05T06:58:32;13.90;;;8.18;;
67248;SDS011;54162;54.300;18.592;2022-08-05T07:00:59;10.20;;;7.60;;
67248;SDS011;54162;54.300;18.592;2022-08-05T07:03:25;9.57;;;7.30;;
67248;SDS011;54162;54.300;18.592;2022-08-05T07:05:51;12.00;;;7.70;;
67248;SDS011;54162;54.300;18.592;2022-08-05T07:08:17;8.10;;;6.85;;
67248;SDS011;54162;54.300;18.592;2022-08-05T07:10:42;12.13;;;7.43;;
67248;SDS011;54162;54.300;18.592;2022-08-05T07:13:07;10.23;;;7.10;;
67248;SDS011;54162;54.300;18.592;2022-08-05T07:15:52;9.13;;;7.32;;
67248;SDS011;54162;54.300;18.592;2022-08-05T07:18:36;11.30;;;6.80;;
67248;SDS011;54162;54.300;18.592;2022-08-05T07:21:01;8.93;;;6.73;;
67248;SDS011;54162;54.300;18.592;2022-08-05T07:23:27;8.57;;;6.75;;
67248;SDS011;54162;54.300;18.592;2022-08-05T07:25:52;8.67;;;6.57;;
67248;SDS011;54162;54.300;18.592;2022-08-05T07:28:18;9.97;;;6.70;;
67248;SDS011;54162;54.300;18.592;2022-08-05T07:30:43;10.13;;;6.50;;
67248;SDS011;54162;54.300;18.592;2022-08-05T07:33:09;7.47;;;6.53;;
67248;SDS011;54162;54.300;18.592;2022-08-05T07:35:39;9.18;;;6.45;;
67248;SDS011;54162;54.300;18.592;2022-08-05T07:38:04;8.23;;;6.43;;
67248;SDS011;54162;54.300;18.592;2022-08-05T07:40:30;10.98;;;6.35;;
67248;SDS011;54162;54.300;18.592;2022-08-05T07:42:55;9.33;;;6.00;;
67248;SDS011;54162;54.300;18.592;2022-08-05T07:45:21;11.10;;;5.93;;
67248;SDS011;54162;54.300;18.592;2022-08-05T07:47:47;7.95;;;6.18;;
67248;SDS011;54162;54.300;18.592;2022-08-05T07:50:12;9.10;;;6.03;;
67248;SDS011;54162;54.300;18.592;2022-08-05T07:52:38;6.87;;;5.63;;
67248;SDS011;54162;54.300;18.592;2022-08-05T07:55:04;10.23;;;6.10;;
67248;SDS011;54162;54.300;18.592;2022-08-05T07:57:30;8.07;;;5.60;;
67248;SDS011;54162;54.300;18.592;2022-08-05T07:59:56;7.70;;;5.60;;
67248;SDS011;54162;54.300;18.592;2022-08-05T08:02:25;7.18;;;5.80;;
67248;SDS011;54162;54.300;18.592;2022-08-05T08:04:52;8.60;;;5.70;;
67248;SDS011;54162;54.300;18.592;2022-08-05T08:07:17;7.43;;;5.80;;
67248;SDS011;54162;54.300;18.592;2022-08-05T08:09:44;7.28;;;5.30;;
67248;SDS011;54162;54.300;18.592;2022-08-05T08:12:10;9.45;;;5.80;;
67248;SDS011;54162;54.300;18.592;2022-08-05T08:14:38;9.10;;;5.63;;
67248;SDS011;54162;54.300;18.592;2022-08-05T08:17:04;12.43;;;5.90;;
67248;SDS011;54162;54.300;18.592;2022-08-05T08:19:35;8.10;;;5.70;;
67248;SDS011;54162;54.300;18.592;2022-08-05T08:22:04;6.45;;;5.35;;
67248;SDS011;54162;54.300;18.592;2022-08-05T08:24:31;8.77;;;5.60;;
67248;SDS011;54162;54.300;18.592;2022-08-05T08:26:57;11.33;;;5.70;;
67248;SDS011;54162;54.300;18.592;2022-08-05T08:29:22;9.23;;;5.57;;
67248;SDS011;54162;54.300;18.592;2022-08-05T08:31:48;7.93;;;5.93;;
67248;SDS011;54162;54.300;18.592;2022-08-05T08:34:18;7.82;;;5.53;;
67248;SDS011;54162;54.300;18.592;2022-08-05T08:36:45;8.95;;;5.60;;
67248;SDS011;54162;54.300;18.592;2022-08-05T08:39:10;8.63;;;5.70;;
67248;SDS011;54162;54.300;18.592;2022-08-05T08:41:36;8.67;;;5.47;;
67248;SDS011;54162;54.300;18.592;2022-08-05T08:44:06;7.10;;;5.53;;
67248;SDS011;54162;54.300;18.592;2022-08-05T08:46:32;10.50;;;5.88;;
67248;SDS011;54162;54.300;18.592;2022-08-05T08:48:58;8.77;;;5.60;;
67248;SDS011;54162;54.300;18.592;2022-08-05T08:51:30;6.28;;;5.30;;
67248;SDS011;54162;54.300;18.592;2022-08-05T08:53:57;7.60;;;5.40;;
67248;SDS011;54162;54.300;18.592;2022-08-05T08:56:23;8.77;;;5.30;;
67248;SDS011;54162;54.300;18.592;2022-08-05T08:58:49;8.85;;;5.25;;
67248;SDS011;54162;54.300;18.592;2022-08-05T09:01:15;6.38;;;4.85;;
67248;SDS011;54162;54.300;18.592;2022-08-05T09:03:41;8.38;;;5.10;;
67248;SDS011;54162;54.300;18.592;2022-08-05T09:06:09;10.47;;;5.00;;
67248;SDS011;54162;54.300;18.592;2022-08-05T09:08:35;10.23;;;5.28;;
67248;SDS011;54162;54.300;18.592;2022-08-05T09:11:00;7.63;;;4.60;;
67248;SDS011;54162;54.300;18.592;2022-08-05T09:13:26;7.10;;;5.33;;
67248;SDS011;54162;54.300;18.592;2022-08-05T09:15:52;6.00;;;4.85;;
67248;SDS011;54162;54.300;18.592;2022-08-05T09:18:18;8.18;;;5.15;;
67248;SDS011;54162;54.300;18.592;2022-08-05T09:20:44;6.83;;;5.00;;
67248;SDS011;54162;54.300;18.592;2022-08-05T09:23:16;6.95;;;5.20;;
67248;SDS011;54162;54.300;18.592;2022-08-05T09:25:47;8.73;;;5.30;;
67248;SDS011;54162;54.300;18.592;2022-08-05T09:30:55;8.67;;;5.03;;
67248;SDS011;54162;54.300;18.592;2022-08-05T09:33:24;6.15;;;4.65;;
67248;SDS011;54162;54.300;18.592;2022-08-05T09:38:22;8.30;;;5.03;;
67248;SDS011;54162;54.300;18.592;2022-08-05T09:40:47;6.22;;;4.90;;
67248;SDS011;54162;54.300;18.592;2022-08-05T09:43:26;8.63;;;4.97;;
67248;SDS011;54162;54.300;18.592;2022-08-05T09:45:53;8.75;;;5.00;;
67248;SDS011;54162;54.300;18.592;2022-08-05T09:48:19;10.83;;;5.10;;
67248;SDS011;54162;54.300;18.592;2022-08-05T09:50:49;7.53;;;5.20;;
67248;SDS011;54162;54.300;18.592;2022-08-05T09:53:16;9.38;;;5.45;;
67248;SDS011;54162;54.300;18.592;2022-08-05T09:55:42;9.93;;;4.80;;
67248;SDS011;54162;54.300;18.592;2022-08-05T09:58:09;7.00;;;5.30;;
67248;SDS011;54162;54.300;18.592;2022-08-05T10:00:36;6.82;;;5.07;;
67248;SDS011;54162;54.300;18.592;2022-08-05T10:03:07;7.20;;;4.70;;
67248;SDS011;54162;54.300;18.592;2022-08-05T10:05:34;7.93;;;5.05;;
67248;SDS011;54162;54.300;18.592;2022-08-05T10:08:03;7.80;;;4.80;;
67248;SDS011;54162;54.300;18.592;2022-08-05T10:12:56;7.63;;;4.90;;
67248;SDS011;54162;54.300;18.592;2022-08-05T10:15:25;9.52;;;5.13;;
67248;SDS011;54162;54.300;18.592;2022-08-05T10:18:07;9.18;;;4.60;;
67248;SDS011;54162;54.300;18.592;2022-08-05T10:20:38;6.97;;;4.60;;
67248;SDS011;54162;54.300;18.592;2022-08-05T10:23:14;9.45;;;4.60;;
67248;SDS011;54162;54.300;18.592;2022-08-05T10:25:42;8.43;;;4.20;;
67248;SDS011;54162;54.300;18.592;2022-08-05T10:28:08;8.43;;;4.43;;
67248;SDS011;54162;54.300;18.592;2022-08-05T10:30:34;5.93;;;4.60;;
67248;SDS011;54162;54.300;18.592;2022-08-05T10:33:01;6.50;;;4.55;;
67248;SDS011;54162;54.300;18.592;2022-08-05T10:35:27;9.18;;;4.43;;
67248;SDS011;54162;54.300;18.592;2022-08-05T10:37:53;6.53;;;4.30;;
67248;SDS011;54162;54.300;18.592;2022-08-05T10:42:45;7.50;;;4.50;;
67248;SDS011;54162;54.300;18.592;2022-08-05T10:45:15;7.50;;;4.30;;
67248;SDS011;54162;54.300;18.592;2022-08-05T10:47:49;6.82;;;4.53;;
67248;SDS011;54162;54.300;18.592;2022-08-05T10:50:14;8.03;;;4.40;;
67248;SDS011;54162;54.300;18.592;2022-08-05T10:52:42;6.95;;;4.60;;
67248;SDS011;54162;54.300;18.592;2022-08-05T10:55:16;6.90;;;4.47;;
67248;SDS011;54162;54.300;18.592;2022-08-05T10:57:43;8.10;;;4.63;;
67248;SDS011;54162;54.300;18.592;2022-08-05T11:03:07;6.87;;;4.70;;
67248;SDS011;54162;54.300;18.592;2022-08-05T11:05:30;5.80;;;4.40;;
67248;SDS011;54162;54.300;18.592;2022-08-05T11:08:07;6.90;;;4.60;;
67248;SDS011;54162;54.300;18.592;2022-08-05T11:10:34;7.68;;;4.20;;
67248;SDS011;54162;54.300;18.592;2022-08-05T11:13:02;8.25;;;4.50;;
67248;SDS011;54162;54.300;18.592;2022-08-05T11:15:30;8.13;;;4.50;;
67248;SDS011;54162;54.300;18.592;2022-08-05T11:18:07;5.93;;;4.43;;
67248;SDS011;54162;54.300;18.592;2022-08-05T11:20:53;7.57;;;4.80;;
67248;SDS011;54162;54.300;18.592;2022-08-05T11:28:49;8.10;;;4.87;;
67248;SDS011;54162;54.300;18.592;2022-08-05T11:31:17;7.15;;;4.30;;
67248;SDS011;54162;54.300;18.592;2022-08-05T11:36:20;6.90;;;4.40;;
67248;SDS011;54162;54.300;18.592;2022-08-05T11:39:02;7.72;;;4.50;;
67248;SDS011;54162;54.300;18.592;2022-08-05T11:41:28;6.47;;;4.90;;
67248;SDS011;54162;54.300;18.592;2022-08-05T11:48:52;10.00;;;4.90;;
67248;SDS011;54162;54.300;18.592;2022-08-05T11:51:18;7.57;;;4.63;;
67248;SDS011;54162;54.300;18.592;2022-08-05T11:53:45;7.40;;;4.87;;
67248;SDS011;54162;54.300;18.592;2022-08-05T11:56:11;10.18;;;4.85;;
67248;SDS011;54162;54.300;18.592;2022-08-05T11:58:37;6.10;;;4.50;;
67248;SDS011;54162;54.300;18.592;2022-08-05T12:01:05;7.15;;;4.32;;
67248;SDS011;54162;54.300;18.592;2022-08-05T12:03:45;7.88;;;4.45;;
67248;SDS011;54162;54.300;18.592;2022-08-05T12:06:22;8.40;;;4.83;;
67248;SDS011;54162;54.300;18.592;2022-08-05T12:08:57;8.02;;;4.63;;
67248;SDS011;54162;54.300;18.592;2022-08-05T12:11:24;5.50;;;4.85;;
67248;SDS011;54162;54.300;18.592;2022-08-05T12:13:56;6.30;;;4.85;;
67248;SDS011;54162;54.300;18.592;2022-08-05T12:16:27;8.25;;;4.93;;
67248;SDS011;54162;54.300;18.592;2022-08-05T12:18:55;6.10;;;4.43;;
67248;SDS011;54162;54.300;18.592;2022-08-05T12:23:51;10.35;;;4.55;;
67248;SDS011;54162;54.300;18.592;2022-08-05T12:26:18;8.67;;;4.70;;
67248;SDS011;54162;54.300;18.592;2022-08-05T12:28:44;6.85;;;4.50;;
67248;SDS011;54162;54.300;18.592;2022-08-05T12:31:09;6.37;;;4.60;;
67248;SDS011;54162;54.300;18.592;2022-08-05T12:33:35;10.05;;;4.90;;
67248;SDS011;54162;54.300;18.592;2022-08-05T12:36:02;7.53;;;4.60;;
67248;SDS011;54162;54.300;18.592;2022-08-05T12:38:29;8.98;;;4.80;;
67248;SDS011;54162;54.300;18.592;2022-08-05T12:40:55;9.47;;;4.83;;
67248;SDS011;54162;54.300;18.592;2022-08-05T12:43:21;8.75;;;4.80;;
67248;SDS011;54162;54.300;18.592;2022-08-05T12:45:50;8.98;;;4.50;;
67248;SDS011;54162;54.300;18.592;2022-08-05T12:48:17;6.27;;;4.90;;
67248;SDS011;54162;54.300;18.592;2022-08-05T12:50:43;13.48;;;4.72;;
67248;SDS011;54162;54.300;18.592;2022-08-05T12:53:08;9.60;;;4.97;;
67248;SDS011;54162;54.300;18.592;2022-08-05T12:55:40;6.13;;;4.30;;
67248;SDS011;54162;54.300;18.592;2022-08-05T12:58:06;8.20;;;4.70;;
67248;SDS011;54162;54.300;18.592;2022-08-05T13:00:32;14.80;;;5.18;;
67248;SDS011;54162;54.300;18.592;2022-08-05T13:03:06;7.10;;;4.60;;
67248;SDS011;54162;54.300;18.592;2022-08-05T13:05:33;8.17;;;4.60;;
67248;SDS011;54162;54.300;18.592;2022-08-05T13:08:02;6.80;;;4.47;;
67248;SDS011;54162;54.300;18.592;2022-08-05T13:10:30;7.35;;;4.85;;
67248;SDS011;54162;54.300;18.592;2022-08-05T13:12:57;9.95;;;5.07;;
67248;SDS011;54162;54.300;18.592;2022-08-05T13:15:26;6.63;;;4.70;;
67248;SDS011;54162;54.300;18.592;2022-08-05T13:17:58;10.00;;;4.40;;
67248;SDS011;54162;54.300;18.592;2022-08-05T13:20:31;8.43;;;4.80;;
67248;SDS011;54162;54.300;18.592;2022-08-05T13:22:58;8.60;;;5.53;;
67248;SDS011;54162;54.300;18.592;2022-08-05T13:25:24;6.67;;;4.63;;
67248;SDS011;54162;54.300;18.592;2022-08-05T13:27:50;9.55;;;4.57;;
67248;SDS011;54162;54.300;18.592;2022-08-05T13:30:18;10.00;;;4.83;;
67248;SDS011;54162;54.300;18.592;2022-08-05T13:32:46;8.15;;;4.75;;
67248;SDS011;54162;54.300;18.592;2022-08-05T13:35:13;8.07;;;4.68;;
67248;SDS011;54162;54.300;18.592;2022-08-05T13:37:39;6.00;;;4.57;;
67248;SDS011;54162;54.300;18.592;2022-08-05T13:40:05;8.82;;;4.57;;
67248;SDS011;54162;54.300;18.592;2022-08-05T13:42:31;6.60;;;4.90;;
67248;SDS011;54162;54.300;18.592;2022-08-05T13:44:57;8.32;;;4.75;;
67248;SDS011;54162;54.300;18.592;2022-08-05T13:47:23;7.78;;;4.40;;
67248;SDS011;54162;54.300;18.592;2022-08-05T13:49:50;6.63;;;4.50;;
67248;SDS011;54162;54.300;18.592;2022-08-05T13:52:23;7.30;;;4.72;;
67248;SDS011;54162;54.300;18.592;2022-08-05T13:54:53;7.78;;;4.80;;
67248;SDS011;54162;54.300;18.592;2022-08-05T13:57:20;6.60;;;5.20;;
67248;SDS011;54162;54.300;18.592;2022-08-05T13:59:46;8.93;;;4.75;;
67248;SDS011;54162;54.300;18.592;2022-08-05T14:02:12;9.23;;;4.60;;
67248;SDS011;54162;54.300;18.592;2022-08-05T14:04:39;6.00;;;4.72;;
67248;SDS011;54162;54.300;18.592;2022-08-05T14:07:43;10.35;;;5.00;;
67248;SDS011;54162;54.300;18.592;2022-08-05T14:10:19;7.90;;;4.80;;
67248;SDS011;54162;54.300;18.592;2022-08-05T14:12:50;7.45;;;4.63;;
67248;SDS011;54162;54.300;18.592;2022-08-05T14:15:15;7.65;;;4.90;;
67248;SDS011;54162;54.300;18.592;2022-08-05T14:17:42;7.40;;;5.17;;
67248;SDS011;54162;54.300;18.592;2022-08-05T14:20:07;7.03;;;5.20;;
67248;SDS011;54162;54.300;18.592;2022-08-05T14:22:33;8.73;;;5.43;;
67248;SDS011;54162;54.300;18.592;2022-08-05T14:24:59;10.50;;;4.57;;
67248;SDS011;54162;54.300;18.592;2022-08-05T14:27:25;10.17;;;5.10;;
67248;SDS011;54162;54.300;18.592;2022-08-05T14:29:50;9.35;;;4.53;;
67248;SDS011;54162;54.300;18.592;2022-08-05T14:32:16;11.50;;;4.57;;
67248;SDS011;54162;54.300;18.592;2022-08-05T14:34:41;9.67;;;5.10;;
67248;SDS011;54162;54.300;18.592;2022-08-05T14:37:07;10.80;;;4.88;;
67248;SDS011;54162;54.300;18.592;2022-08-05T14:39:32;11.37;;;5.40;;
67248;SDS011;54162;54.300;18.592;2022-08-05T14:41:58;10.13;;;5.40;;
67248;SDS011;54162;54.300;18.592;2022-08-05T14:44:24;8.10;;;5.13;;
67248;SDS011;54162;54.300;18.592;2022-08-05T14:46:49;9.17;;;5.20;;
67248;SDS011;54162;54.300;18.592;2022-08-05T14:49:15;6.90;;;4.43;;
67248;SDS011;54162;54.300;18.592;2022-08-05T14:51:40;8.33;;;5.20;;
67248;SDS011;54162;54.300;18.592;2022-08-05T14:54:06;6.50;;;4.63;;
67248;SDS011;54162;54.300;18.592;2022-08-05T14:56:32;6.90;;;4.78;;
67248;SDS011;54162;54.300;18.592;2022-08-05T14:58:58;8.47;;;5.23;;
67248;SDS011;54162;54.300;18.592;2022-08-05T15:01:25;9.88;;;4.68;;
67248;SDS011;54162;54.300;18.592;2022-08-05T15:03:50;7.30;;;5.43;;